createdAt,value
2023-03-02T00:01:00.792Z,9.05
2023-03-02T00:03:31.052Z,9.55
2023-03-02T00:06:00.373Z,10.77
2023-03-02T00:08:29.287Z,9.88
2023-03-02T00:10:58.897Z,10.07
2023-03-02T00:13:26.617Z,9.85
2023-03-02T00:15:54.413Z,10.43
2023-03-02T00:18:22.202Z,10.05
2023-03-02T00:20:51.439Z,9.70
2023-03-02T00:23:19.210Z,9.73
2023-03-02T00:25:47.026Z,10.25
2023-03-02T00:28:14.761Z,9.35
2023-03-02T00:30:42.681Z,11.27
2023-03-02T00:33:10.433Z,10.00
2023-03-02T00:35:39.149Z,8.32
2023-03-02T00:38:08.867Z,10.45
2023-03-02T00:40:37.170Z,8.10
2023-03-02T00:43:05.042Z,8.30
2023-03-02T00:45:32.787Z,8.82
2023-03-02T00:48:00.482Z,9.65
2023-03-02T00:50:28.303Z,10.23
2023-03-02T00:52:56.165Z,9.23
2023-03-02T00:55:25.336Z,9.52
2023-03-02T00:57:55.066Z,9.10
2023-03-02T01:00:28.493Z,8.70
2023-03-02T01:02:59.603Z,8.07
2023-03-02T01:05:27.606Z,10.20
2023-03-02T01:07:55.491Z,8.00
2023-03-02T01:10:23.274Z,8.95
2023-03-02T01:12:52.392Z,9.38
2023-03-02T01:15:20.419Z,8.75
2023-03-02T01:17:48.197Z,8.45
2023-03-02T01:20:16.565Z,7.30
2023-03-02T01:22:44.632Z,8.15
2023-03-02T01:25:13.829Z,9.07
2023-03-02T01:27:42.644Z,8.70
2023-03-02T01:30:13.697Z,8.18
2023-03-02T01:32:41.464Z,9.52
2023-03-02T01:35:10.158Z,8.95
2023-03-02T01:37:38.032Z,8.48
2023-03-02T01:40:06.872Z,9.13
2023-03-02T01:42:38.126Z,8.35
2023-03-02T01:45:07.383Z,7.88
2023-03-02T01:47:40.011Z,8.52
2023-03-02T01:50:20.911Z,7.90
2023-03-02T01:52:51.021Z,7.32
2023-03-02T01:55:29.051Z,8.43
2023-03-02T01:57:59.126Z,9.32
2023-03-02T02:00:30.792Z,7.78
2023-03-02T02:03:09.243Z,8.73
2023-03-02T02:05:40.018Z,7.75
2023-03-02T02:08:08.449Z,8.07
2023-03-02T02:10:36.991Z,7.63
2023-03-02T02:13:04.805Z,8.88
2023-03-02T02:15:32.639Z,8.75
2023-03-02T02:18:01.803Z,9.00
2023-03-02T02:20:35.175Z,9.20
2023-03-02T02:23:17.385Z,7.47
2023-03-02T02:25:55.375Z,8.32
2023-03-02T02:28:28.889Z,8.05
2023-03-02T02:31:07.823Z,9.35
2023-03-02T02:33:37.584Z,7.72
2023-03-02T02:36:09.272Z,7.43
2023-03-02T02:38:40.788Z,8.82
2023-03-02T02:41:19.197Z,8.43
2023-03-02T02:43:47.226Z,8.15
2023-03-02T02:46:15.037Z,7.65
2023-03-02T02:48:42.853Z,10.35
2023-03-02T02:51:19.084Z,8.68
2023-03-02T02:53:51.113Z,9.82
2023-03-02T02:56:20.455Z,7.77
2023-03-02T02:58:52.703Z,6.88
2023-03-02T03:01:25.435Z,10.10
2023-03-02T03:06:26.702Z,7.43
2023-03-02T03:09:01.998Z,8.00
2023-03-02T03:11:53.583Z,8.45
2023-03-02T03:14:25.772Z,9.35
2023-03-02T03:16:55.098Z,8.82
2023-03-02T03:19:24.972Z,7.82
2023-03-02T03:21:56.156Z,8.90
2023-03-02T03:24:26.785Z,7.72
2023-03-02T03:26:57.054Z,8.00
2023-03-02T03:29:29.308Z,8.35
2023-03-02T03:32:01.526Z,8.25
2023-03-02T03:34:31.842Z,9.20
2023-03-02T03:37:01.735Z,9.07
2023-03-02T03:39:32.827Z,8.88
2023-03-02T03:42:02.242Z,9.80
2023-03-02T03:44:30.612Z,9.95
2023-03-02T03:46:58.826Z,9.57
2023-03-02T03:49:27.312Z,8.32
2023-03-02T03:51:56.238Z,9.35
2023-03-02T03:54:24.640Z,10.25
2023-03-02T03:56:52.545Z,10.35
2023-03-02T03:59:24.028Z,9.23
2023-03-02T04:01:57.776Z,8.55
2023-03-02T04:04:30.897Z,8.88
2023-03-02T04:06:59.159Z,7.93
2023-03-02T04:09:27.865Z,8.10
2023-03-02T04:11:58.276Z,8.98
2023-03-02T04:14:28.787Z,9.13
2023-03-02T04:16:57.582Z,8.48
2023-03-02T04:19:27.095Z,9.52
2023-03-02T04:22:01.943Z,9.65
2023-03-02T04:24:29.811Z,7.85
2023-03-02T04:27:00.839Z,7.95
2023-03-02T04:29:32.358Z,7.95
2023-03-02T04:32:01.727Z,8.80
2023-03-02T04:34:30.962Z,8.75
2023-03-02T04:36:59.009Z,7.32
2023-03-02T04:39:27.625Z,8.13
2023-03-02T04:41:55.583Z,7.90
2023-03-02T04:44:23.786Z,9.32
2023-03-02T04:46:53.030Z,8.32
2023-03-02T04:49:21.269Z,8.63
2023-03-02T04:51:50.372Z,8.40
2023-03-02T04:54:20.559Z,7.15
2023-03-02T04:56:48.541Z,8.15
2023-03-02T04:59:17.005Z,8.98
2023-03-02T05:01:44.873Z,7.90
2023-03-02T05:04:14.115Z,8.15
2023-03-02T05:06:41.876Z,8.90
2023-03-02T05:09:09.715Z,8.90
2023-03-02T05:11:38.116Z,9.65
2023-03-02T05:14:07.795Z,10.48
2023-03-02T05:16:37.546Z,8.80
2023-03-02T05:19:07.217Z,9.90
2023-03-02T05:21:36.891Z,8.88
2023-03-02T05:24:05.264Z,9.35
2023-03-02T05:26:33.767Z,8.27
2023-03-02T05:29:01.716Z,10.00
2023-03-02T05:31:34.933Z,9.13
2023-03-02T05:34:03.341Z,8.38
2023-03-02T05:36:31.438Z,7.88
2023-03-02T05:39:00.581Z,7.47
2023-03-02T05:41:28.501Z,8.05
2023-03-02T05:43:56.331Z,7.43
2023-03-02T05:46:24.705Z,9.40
2023-03-02T05:48:52.502Z,8.73
2023-03-02T05:51:20.392Z,10.00
2023-03-02T05:53:48.186Z,10.65
2023-03-02T05:56:17.404Z,8.80
2023-03-02T05:58:45.168Z,9.68
2023-03-02T06:01:15.452Z,10.85
2023-03-02T06:03:44.820Z,9.85
2023-03-02T06:06:14.579Z,8.88
2023-03-02T06:08:43.279Z,9.32
2023-03-02T06:11:11.514Z,8.02
2023-03-02T06:13:41.507Z,8.45
2023-03-02T06:16:09.679Z,8.93
2023-03-02T06:18:40.431Z,7.65
2023-03-02T06:25:03.431Z,7.35
2023-03-02T06:27:31.199Z,7.93
2023-03-02T06:30:00.293Z,9.02
2023-03-02T06:32:34.089Z,9.23
2023-03-02T06:35:02.109Z,10.60
2023-03-02T06:37:30.402Z,9.02
2023-03-02T06:39:58.645Z,9.02
2023-03-02T06:42:27.787Z,9.75
2023-03-02T06:44:55.815Z,9.25
2023-03-02T06:47:25.422Z,9.65
2023-03-02T06:49:53.204Z,10.25
2023-03-02T06:52:21.000Z,9.38
2023-03-02T06:54:48.838Z,10.05
2023-03-02T06:57:16.544Z,10.68
2023-03-02T06:59:44.316Z,9.82
2023-03-02T07:02:12.521Z,9.27
2023-03-02T07:04:41.846Z,10.02
2023-03-02T07:07:09.864Z,8.90
2023-03-02T07:09:37.711Z,9.80
2023-03-02T07:12:05.617Z,10.88
2023-03-02T07:14:35.547Z,9.95
2023-03-02T07:17:05.415Z,10.23
2023-03-02T07:19:33.307Z,9.38
2023-03-02T07:22:02.384Z,8.93
2023-03-02T07:24:30.216Z,9.25
2023-03-02T07:26:58.020Z,9.35
2023-03-02T07:29:25.862Z,10.02
2023-03-02T07:31:57.098Z,8.90
2023-03-02T07:34:25.618Z,7.70
2023-03-02T07:36:53.984Z,8.82
2023-03-02T07:39:23.318Z,9.30
2023-03-02T07:41:51.037Z,9.75
2023-03-02T07:44:22.448Z,10.45
2023-03-02T07:46:50.323Z,10.15
2023-03-02T07:49:18.132Z,9.02
2023-03-02T07:51:45.976Z,9.80
2023-03-02T07:54:13.732Z,9.02
2023-03-02T07:56:42.904Z,9.38
2023-03-02T07:59:12.081Z,8.75
2023-03-02T08:01:39.928Z,9.13
2023-03-02T08:04:07.665Z,8.93
2023-03-02T08:06:35.486Z,10.05
2023-03-02T08:09:03.468Z,8.98
2023-03-02T08:11:31.401Z,8.05
2023-03-02T08:14:02.660Z,10.48
2023-03-02T08:16:31.214Z,7.82
2023-03-02T08:18:59.990Z,9.70
2023-03-02T08:21:29.203Z,10.02
2023-03-02T08:23:58.433Z,9.57
2023-03-02T08:26:26.324Z,9.60
2023-03-02T08:28:54.026Z,10.48
2023-03-02T08:31:23.203Z,9.98
2023-03-02T08:33:51.081Z,9.52
2023-03-02T08:36:20.510Z,11.35
2023-03-02T08:38:49.835Z,8.63
2023-03-02T08:41:21.040Z,9.38
2023-03-02T08:43:49.404Z,9.07
2023-03-02T08:46:19.600Z,10.45
2023-03-02T08:48:51.197Z,8.18
2023-03-02T08:51:21.558Z,8.65
2023-03-02T08:53:51.607Z,10.50
2023-03-02T08:56:21.328Z,8.88
2023-03-02T08:58:49.614Z,9.60
2023-03-02T09:01:19.611Z,8.10
2023-03-02T09:03:49.194Z,8.77
2023-03-02T09:06:16.935Z,10.50
2023-03-02T09:08:45.322Z,7.88
2023-03-02T09:11:13.430Z,9.02
2023-03-02T09:13:41.392Z,9.02
2023-03-02T09:16:09.962Z,10.73
2023-03-02T09:18:37.824Z,10.40
2023-03-02T09:21:07.431Z,8.18
2023-03-02T09:23:36.484Z,8.07
2023-03-02T09:26:04.841Z,10.02
2023-03-02T09:28:33.125Z,9.55
2023-03-02T09:31:04.218Z,8.60
2023-03-02T09:33:33.379Z,9.73
2023-03-02T09:36:02.323Z,9.45
2023-03-02T09:38:31.554Z,7.82
2023-03-02T09:41:21.076Z,9.18
2023-03-02T09:44:00.090Z,7.82
2023-03-02T09:46:34.494Z,8.50
2023-03-02T09:49:15.999Z,8.55
2023-03-02T09:51:48.356Z,9.55
2023-03-02T09:54:24.208Z,7.75
2023-03-02T09:56:57.163Z,12.32
2023-03-02T10:02:01.301Z,9.45
2023-03-02T10:04:31.391Z,10.90
2023-03-02T10:07:06.970Z,10.77
2023-03-02T10:09:36.124Z,9.98
2023-03-02T10:12:22.564Z,10.65
2023-03-02T10:14:56.865Z,7.78
2023-03-02T10:17:41.121Z,10.57
2023-03-02T10:20:18.204Z,7.72
2023-03-02T10:22:49.386Z,8.38
2023-03-02T10:25:31.602Z,8.60
2023-03-02T10:28:03.744Z,8.85
2023-03-02T10:30:36.394Z,8.18
2023-03-02T10:33:11.303Z,8.95
2023-03-02T10:35:39.403Z,9.07
2023-03-02T10:38:14.240Z,11.20
2023-03-02T10:40:46.588Z,9.75
2023-03-02T10:43:19.388Z,7.88
2023-03-02T10:48:16.266Z,7.72
2023-03-02T10:50:45.321Z,8.55
2023-03-02T10:53:19.008Z,9.35
2023-03-02T10:55:50.233Z,9.45
2023-03-02T10:58:25.949Z,8.52
2023-03-02T11:01:01.805Z,9.27
2023-03-02T11:03:30.319Z,9.63
2023-03-02T11:05:58.608Z,9.73
2023-03-02T11:08:28.628Z,10.38
2023-03-02T11:11:01.211Z,10.55
2023-03-02T11:13:32.249Z,9.88
2023-03-02T11:16:01.478Z,9.55
2023-03-02T11:18:33.932Z,8.75
2023-03-02T11:21:05.588Z,10.32
2023-03-02T11:23:46.564Z,9.25
2023-03-02T11:26:22.701Z,8.70
2023-03-02T11:28:59.360Z,10.48
2023-03-02T11:31:37.864Z,9.02
2023-03-02T11:34:21.239Z,8.20
2023-03-02T11:37:02.332Z,7.85
2023-03-02T11:39:49.999Z,10.20
2023-03-02T11:42:28.045Z,7.83
2023-03-02T11:44:56.243Z,10.55
2023-03-02T11:47:24.567Z,10.18
2023-03-02T11:49:56.209Z,9.35
2023-03-02T11:52:28.403Z,8.40
2023-03-02T11:55:00.458Z,7.75
2023-03-02T11:57:34.303Z,8.80
2023-03-02T12:00:04.804Z,9.07
2023-03-02T12:02:40.236Z,8.57
2023-03-02T12:05:24.168Z,8.73
2023-03-02T12:07:58.834Z,8.35
2023-03-02T12:10:32.297Z,8.40
2023-03-02T12:13:13.901Z,9.10
2023-03-02T12:15:43.446Z,8.48
2023-03-02T12:18:31.690Z,9.05
2023-03-02T12:21:06.035Z,7.57
2023-03-02T12:23:36.585Z,8.57
2023-03-02T12:26:09.304Z,7.93
2023-03-02T12:28:40.715Z,8.35
2023-03-02T12:31:14.525Z,9.60
2023-03-02T12:33:46.950Z,9.55
2023-03-02T12:36:19.361Z,8.90
2023-03-02T12:39:00.543Z,8.25
2023-03-02T12:41:41.481Z,8.55
2023-03-02T12:44:24.395Z,7.60
2023-03-02T12:46:54.278Z,8.15
2023-03-02T12:49:35.292Z,7.60
2023-03-02T12:52:05.666Z,7.80
2023-03-02T12:54:35.290Z,7.50
2023-03-02T12:57:08.976Z,7.85
2023-03-02T12:59:38.316Z,7.75
2023-03-02T13:02:18.321Z,7.07
2023-03-02T13:04:52.702Z,7.38
2023-03-02T13:07:25.191Z,6.88
2023-03-02T13:09:56.899Z,7.78
2023-03-02T13:12:28.044Z,9.10
2023-03-02T13:14:59.439Z,9.52
2023-03-02T13:17:30.943Z,8.30
2023-03-02T13:20:00.813Z,7.75
2023-03-02T13:22:29.291Z,7.72
2023-03-02T13:25:00.326Z,9.65
2023-03-02T13:27:28.661Z,8.20
2023-03-02T13:30:09.049Z,8.48
2023-03-02T13:32:41.160Z,7.57
2023-03-02T13:35:19.152Z,6.00
2023-03-02T13:37:47.211Z,6.45
2023-03-02T13:40:34.960Z,7.55
2023-03-02T13:43:02.824Z,7.75
2023-03-02T13:45:34.037Z,8.27
2023-03-02T13:48:15.305Z,7.70
2023-03-02T13:50:52.531Z,6.50
2023-03-02T13:53:21.373Z,6.35
2023-03-02T13:55:49.773Z,6.68
2023-03-02T13:58:20.035Z,8.38
2023-03-02T14:00:50.507Z,6.18
2023-03-02T14:03:26.806Z,7.57
2023-03-02T14:05:55.646Z,7.03
2023-03-02T14:08:23.675Z,6.90
2023-03-02T14:10:54.209Z,6.95
2023-03-02T14:13:24.972Z,6.65
2023-03-02T14:15:54.898Z,6.65
2023-03-02T14:18:30.375Z,7.85
2023-03-02T14:20:58.645Z,6.47
2023-03-02T14:23:27.242Z,6.95
2023-03-02T14:25:57.417Z,8.23
2023-03-02T14:28:29.041Z,6.93
2023-03-02T14:30:59.534Z,7.40
2023-03-02T14:33:27.803Z,6.68
2023-03-02T14:35:58.261Z,7.53
2023-03-02T14:38:28.140Z,7.07
2023-03-02T14:40:56.299Z,6.65
2023-03-02T14:43:25.206Z,5.68
2023-03-02T14:45:53.354Z,5.82
2023-03-02T14:48:22.596Z,5.25
2023-03-02T14:50:52.523Z,5.28
2023-03-02T14:53:27.236Z,7.05
2023-03-02T14:55:55.045Z,6.43
2023-03-02T14:58:30.637Z,6.65
2023-03-02T15:01:01.036Z,5.38
2023-03-02T15:03:30.546Z,5.82
2023-03-02T15:06:01.789Z,5.43
2023-03-02T15:08:30.547Z,6.47
2023-03-02T15:10:58.485Z,5.45
2023-03-02T15:13:26.323Z,6.63
2023-03-02T15:15:54.242Z,5.57
2023-03-02T15:18:22.109Z,6.68
2023-03-02T15:20:51.216Z,7.43
2023-03-02T15:23:19.026Z,5.78
2023-03-02T15:25:46.728Z,6.38
2023-03-02T15:28:14.460Z,5.90
2023-03-02T15:30:42.186Z,6.97
2023-03-02T15:33:10.077Z,5.82
2023-03-02T15:35:40.173Z,6.88
2023-03-02T15:38:09.516Z,5.85
2023-03-02T15:40:37.549Z,5.53
2023-03-02T15:43:05.362Z,6.75
2023-03-02T15:45:33.193Z,5.57
2023-03-02T15:48:00.948Z,7.03
2023-03-02T15:50:28.701Z,6.28
2023-03-02T15:52:57.469Z,5.72
2023-03-02T15:55:27.094Z,6.50
2023-03-02T15:57:58.000Z,6.30
2023-03-02T16:00:25.994Z,5.75
2023-03-02T16:02:53.845Z,6.40
2023-03-02T16:05:21.807Z,6.22
2023-03-02T16:07:49.581Z,7.57
2023-03-02T16:10:19.647Z,6.22
2023-03-02T16:12:48.741Z,6.35
2023-03-02T16:15:16.668Z,7.05
2023-03-02T16:17:44.463Z,6.53
2023-03-02T16:20:13.421Z,6.13
2023-03-02T16:22:41.249Z,6.07
2023-03-02T16:25:09.860Z,5.88
2023-03-02T16:27:38.039Z,6.18
2023-03-02T16:30:08.726Z,5.32
2023-03-02T16:32:36.636Z,6.97
2023-03-02T16:35:04.760Z,5.65
2023-03-02T16:37:32.653Z,5.50
2023-03-02T16:40:00.418Z,7.03
2023-03-02T16:42:30.318Z,6.05
2023-03-02T16:44:58.173Z,6.35
2023-03-02T16:47:27.360Z,5.68
2023-03-02T16:49:55.156Z,6.00
2023-03-02T16:52:23.047Z,5.93
2023-03-02T16:54:50.882Z,7.63
2023-03-02T16:57:18.679Z,6.57
2023-03-02T16:59:46.494Z,7.45
2023-03-02T17:02:15.635Z,6.68
2023-03-02T17:04:45.127Z,6.88
2023-03-02T17:07:12.980Z,7.30
2023-03-02T17:09:42.086Z,7.03
2023-03-02T17:12:09.878Z,7.53
2023-03-02T17:14:37.693Z,7.25
2023-03-02T17:17:05.574Z,9.25
2023-03-02T17:19:33.718Z,11.60
2023-03-02T17:22:03.641Z,8.07
2023-03-02T17:24:31.837Z,9.18
2023-03-02T17:26:59.668Z,9.23
2023-03-02T17:29:27.825Z,9.07
2023-03-02T17:31:56.238Z,11.10
2023-03-02T17:34:24.121Z,11.05
2023-03-02T17:36:51.882Z,11.77
2023-03-02T17:39:21.044Z,13.02
2023-03-02T17:41:48.842Z,10.20
2023-03-02T17:44:16.585Z,10.52
2023-03-02T17:46:45.377Z,10.05
2023-03-02T17:49:13.760Z,10.85
2023-03-02T17:51:41.551Z,10.05
2023-03-02T17:54:09.278Z,10.80
2023-03-02T17:56:38.904Z,10.27
2023-03-02T17:59:06.792Z,10.57
2023-03-02T18:01:34.794Z,10.02
2023-03-02T18:04:02.637Z,11.57
2023-03-02T18:06:30.443Z,12.23
2023-03-02T18:08:58.200Z,13.55
2023-03-02T18:11:27.160Z,11.60
2023-03-02T18:13:56.494Z,12.48
2023-03-02T18:16:27.871Z,11.43
2023-03-02T18:18:55.899Z,12.43
2023-03-02T18:21:24.391Z,12.25
2023-03-02T18:23:52.275Z,12.93
2023-03-02T18:26:20.010Z,13.25
2023-03-02T18:28:47.854Z,14.07
2023-03-02T18:31:18.072Z,12.57
2023-03-02T18:33:46.308Z,13.30
2023-03-02T18:36:14.367Z,11.35
2023-03-02T18:38:42.545Z,10.70
2023-03-02T18:41:11.032Z,12.07
2023-03-02T18:43:41.864Z,12.95
2023-03-02T18:46:20.158Z,13.20
2023-03-02T18:48:49.401Z,12.30
2023-03-02T18:51:17.530Z,12.90
2023-03-02T18:53:45.857Z,12.98
2023-03-02T18:56:13.904Z,12.95
2023-03-02T18:58:42.313Z,10.68
2023-03-02T19:01:10.194Z,12.15
2023-03-02T19:03:40.133Z,13.90
2023-03-02T19:06:08.624Z,11.85
2023-03-02T19:08:36.954Z,10.55
2023-03-02T19:11:06.334Z,13.25
2023-03-02T19:13:34.821Z,13.73
2023-03-02T19:16:02.955Z,14.75
2023-03-02T19:18:31.284Z,12.63
2023-03-02T19:21:01.207Z,15.43
2023-03-02T19:23:28.970Z,14.75
2023-03-02T19:25:56.725Z,14.32
2023-03-02T19:28:24.673Z,13.32
2023-03-02T19:30:52.646Z,17.10
2023-03-02T19:33:20.449Z,14.45
2023-03-02T19:35:48.287Z,15.93
2023-03-02T19:38:18.267Z,14.77
2023-03-02T19:40:46.057Z,15.02
2023-03-02T19:43:13.830Z,15.32
2023-03-02T19:45:41.762Z,16.48
2023-03-02T19:48:13.519Z,16.90
2023-03-02T19:50:41.668Z,18.10
2023-03-02T19:53:10.274Z,18.13
2023-03-02T19:55:39.705Z,18.58
2023-03-02T19:58:08.089Z,16.40
2023-03-02T20:00:36.256Z,17.63
2023-03-02T20:03:05.933Z,18.25
2023-03-02T20:05:33.779Z,16.77
2023-03-02T20:08:01.567Z,16.50
2023-03-02T20:10:31.487Z,16.70
2023-03-02T20:13:00.932Z,15.77
2023-03-02T20:15:29.900Z,16.92
2023-03-02T20:17:59.394Z,15.77
2023-03-02T20:20:28.150Z,15.55
2023-03-02T20:22:55.934Z,16.83
2023-03-02T20:25:24.255Z,16.98
2023-03-02T20:27:52.942Z,15.45
2023-03-02T20:30:27.669Z,16.30
2023-03-02T20:32:57.216Z,16.05
2023-03-02T20:35:28.157Z,16.23
2023-03-02T20:37:57.417Z,15.40
2023-03-02T20:40:26.654Z,17.20
2023-03-02T20:42:55.118Z,16.38
2023-03-02T20:45:24.957Z,15.18
2023-03-02T20:47:52.907Z,18.00
2023-03-02T20:50:24.472Z,17.13
2023-03-02T20:52:52.388Z,18.13
2023-03-02T20:55:20.497Z,14.52
2023-03-02T20:57:48.963Z,15.95
2023-03-02T21:00:21.195Z,17.30
2023-03-02T21:02:50.843Z,16.38
2023-03-02T21:05:20.186Z,18.40
2023-03-02T21:07:49.215Z,18.55
2023-03-02T21:10:20.191Z,17.73
2023-03-02T21:12:49.001Z,15.70
2023-03-02T21:15:17.613Z,17.15
2023-03-02T21:17:45.440Z,16.52
2023-03-02T21:20:18.382Z,18.85
2023-03-02T21:22:46.972Z,18.23
2023-03-02T21:25:16.960Z,17.55
2023-03-02T21:27:45.786Z,17.35
2023-03-02T21:30:19.700Z,17.63
2023-03-02T21:32:48.269Z,17.45
2023-03-02T21:35:19.900Z,16.92
2023-03-02T21:37:49.309Z,15.90
2023-03-02T21:40:20.338Z,16.17
2023-03-02T21:42:48.331Z,17.08
2023-03-02T21:45:16.115Z,18.75
2023-03-02T21:47:44.588Z,18.95
2023-03-02T21:50:16.798Z,19.05
2023-03-02T21:52:45.922Z,18.35
2023-03-02T21:55:14.678Z,19.00
2023-03-02T21:57:42.974Z,18.63
2023-03-02T22:00:20.740Z,17.73
2023-03-02T22:02:48.674Z,19.80
2023-03-02T22:05:16.620Z,20.90
2023-03-02T22:07:45.977Z,18.33
2023-03-02T22:10:23.939Z,19.38
2023-03-02T22:12:56.335Z,21.02
2023-03-02T22:15:24.242Z,18.15
2023-03-02T22:17:52.351Z,18.40
2023-03-02T22:20:21.030Z,17.98
2023-03-02T22:22:54.491Z,19.20
2023-03-02T22:25:22.672Z,20.27
2023-03-02T22:27:50.490Z,19.58
2023-03-02T22:30:22.212Z,19.65
2023-03-02T22:32:50.606Z,19.73
2023-03-02T22:35:24.600Z,20.13
2023-03-02T22:38:01.002Z,20.08
2023-03-02T22:40:31.381Z,18.45
2023-03-02T22:43:21.322Z,20.98
2023-03-02T22:45:49.115Z,19.33
2023-03-02T22:48:19.065Z,20.10
2023-03-02T22:50:48.944Z,21.40
2023-03-02T22:53:28.278Z,22.13
2023-03-02T22:55:58.485Z,20.38
2023-03-02T22:58:31.469Z,20.45
2023-03-02T23:03:37.990Z,18.27
2023-03-02T23:06:20.492Z,22.15
2023-03-02T23:08:50.724Z,21.48
2023-03-02T23:11:23.480Z,25.27
2023-03-02T23:13:52.250Z,22.45
2023-03-02T23:16:21.958Z,21.02
2023-03-02T23:18:50.921Z,25.42
2023-03-02T23:21:21.442Z,25.13
2023-03-02T23:23:51.636Z,22.52
2023-03-02T23:26:20.225Z,24.40
2023-03-02T23:28:49.219Z,25.58
2023-03-02T23:31:19.162Z,23.10
2023-03-02T23:33:47.074Z,25.10
2023-03-02T23:36:15.792Z,26.73
2023-03-02T23:38:43.712Z,26.45
2023-03-02T23:41:12.828Z,25.27
2023-03-02T23:43:40.959Z,25.92
2023-03-02T23:46:08.743Z,25.02
2023-03-02T23:48:36.513Z,25.58
2023-03-02T23:51:04.384Z,24.52
2023-03-02T23:53:32.189Z,25.90
2023-03-02T23:56:00.232Z,26.33
2023-03-02T23:58:29.383Z,25.60
